Carnival Victory — 3FFL8 — position and weather

sailwx.info

Track history (hours):
 
Tides and Currents Weather Stations Pressure Air Temp Water Temp Dewpoint Dewpoint Depression Visibility Wind Speed Wind Dir Waves Ship Positions

Carnival Victory

Operator: Carnival Cruise Lines

Last reported at 2015-Aug-27 23:33 UTC. Time now 2015-Aug-28 00:19 UTC.
Position N 25°24' W 079°57'.

Type: Ship. MMSI: 355263000.

Date/timePositionNaut miles runAvg speedWind from/ knotsBaromVisibWave heightAir tempDewpointWater temp
2015-Aug-27 23:33N 25°24' W 079°57'1312.9
2015-Aug-27 22:33N 25°36' W 079°58'1211.9
2015-Aug-27 21:34N 25°45' W 080°07'4 3.1
2015-Aug-27 20:26N 25°47' W 080°10'0 0.0
2015-Aug-27 19:32N 25°47' W 080°10'0 0.0
2015-Aug-27 18:26N 25°47' W 080°10'0 0.0
2015-Aug-27 17:32N 25°47' W 080°10'0 0.0
2015-Aug-27 16:29N 25°47' W 080°10'0 0.0
2015-Aug-27 15:32N 25°47' W 080°10'0 0.0
2015-Aug-27 14:32N 25°47' W 080°10'0 0.0
2015-Aug-27 13:32N 25°47' W 080°10'0 0.0
2015-Aug-27 12:32N 25°47' W 080°10'0 0.0
2015-Aug-27 11:32N 25°47' W 080°10'0 0.2
2015-Aug-27 10:34N 25°47' W 080°10'10 9.6
2015-Aug-27 09:34N 25°48' W 079°60'1312.6
2015-Aug-27 08:33N 25°55' W 079°48'1615.6
2015-Aug-27 07:33N 26°03' W 079°33'1716.7
2015-Aug-27 06:33N 26°11' W 079°16'1817.5
2015-Aug-27 05:32N 26°14' W 078°57'112 4.7
2015-Aug-26 06:00N 25°36' W 077°00'8111.6 110 / 231015.0 5.4 2.028.025.028.0
2015-Aug-25 23:00N 24°36' W 076°00'118 6.9 080 / 91016.010.8 28.025.031.4
2015-Aug-25 06:00N 23°12' W 074°30'16320.4 120 / 121015.0 5.4 1.528.025.027.0
2015-Aug-24 22:00N 22°06' W 071°48'320 8.9 100 / 141016.010.8 0.528.025.030.3
2015-Aug-23 10:00N 25°30' W 076°18'15618.2 330 / 31016.010.8 28.025.030.5
2015-Aug-23 01:23N 26°16' W 079°04'1416.7
2015-Aug-23 00:33N 26°11' W 079°18'1817.5
2015-Aug-22 23:33N 26°02' W 079°35'1818.2
2015-Aug-22 22:33N 25°53' W 079°52'1615.6
2015-Aug-22 21:33N 25°46' W 080°08'2 2.3
2015-Aug-22 20:32N 25°47' W 080°10'0 0.0
2015-Aug-22 19:29N 25°47' W 080°10'0 0.0
2015-Aug-22 18:32N 25°47' W 080°10'0 0.0
2015-Aug-22 17:32N 25°47' W 080°10'0 0.0
2015-Aug-22 16:32N 25°47' W 080°10'0 0.0
2015-Aug-22 15:32N 25°47' W 080°10'0 0.0
2015-Aug-22 14:32N 25°47' W 080°10'0 0.0
2015-Aug-22 13:32N 25°47' W 080°10'0 0.0
2015-Aug-22 12:32N 25°47' W 080°10'0 0.0
2015-Aug-22 11:32N 25°47' W 080°10'1 1.5
2015-Aug-22 10:34N 25°46' W 080°09'10 9.6
2015-Aug-22 09:33N 25°43' W 079°59'1414.1
2015-Aug-22 08:34N 25°29' W 079°54'  
2015-Aug-19 06:00N 20°00' W 082°36'18915.7 120 / 81013.010.8 1.029.026.029.0
2015-Aug-18 18:00N 22°36' W 084°30'13817.2 040 / 41016.010.8 2.030.027.030.0
2015-Aug-18 10:00N 23°30' W 082°12'7218.1 080 / 91016.010.8 0.527.024.031.3
2015-Aug-18 06:00N 24°00' W 081°00'9215.7 090 / 191015.0 1.528.025.029.0
2015-Aug-18 00:08N 25°13' W 079°58'916.2
2015-Aug-17 23:33N 25°22' W 079°57'  
Track history (hours):
 
Tides and Currents Weather Stations Pressure Air Temp Water Temp Dewpoint Dewpoint Depression Visibility Wind Speed Wind Dir Waves Ship Positions

Carnival Victory

Operator: Carnival Cruise Lines

Last reported at 2015-Aug-27 23:33 UTC. Time now 2015-Aug-28 00:19 UTC.
Position N 25°24' W 079°57'.

Type: Ship. MMSI: 355263000.

Date/timePositionNaut miles runAvg speedWind from/ knotsBaromVisibWave heightAir tempDewpointWater temp
2015-Aug-27 23:33N 25°24' W 079°57'1312.9
2015-Aug-27 22:33N 25°36' W 079°58'1211.9
2015-Aug-27 21:34N 25°45' W 080°07'4 3.1
2015-Aug-27 20:26N 25°47' W 080°10'0 0.0
2015-Aug-27 19:32N 25°47' W 080°10'0 0.0
2015-Aug-27 18:26N 25°47' W 080°10'0 0.0
2015-Aug-27 17:32N 25°47' W 080°10'0 0.0
2015-Aug-27 16:29N 25°47' W 080°10'0 0.0
2015-Aug-27 15:32N 25°47' W 080°10'0 0.0
2015-Aug-27 14:32N 25°47' W 080°10'0 0.0
2015-Aug-27 13:32N 25°47' W 080°10'0 0.0
2015-Aug-27 12:32N 25°47' W 080°10'0 0.0
2015-Aug-27 11:32N 25°47' W 080°10'0 0.2
2015-Aug-27 10:34N 25°47' W 080°10'10 9.6
2015-Aug-27 09:34N 25°48' W 079°60'1312.6
2015-Aug-27 08:33N 25°55' W 079°48'1615.6
2015-Aug-27 07:33N 26°03' W 079°33'1716.7
2015-Aug-27 06:33N 26°11' W 079°16'1817.5
2015-Aug-27 05:32N 26°14' W 078°57'112 4.7
2015-Aug-26 06:00N 25°36' W 077°00'8111.6 110 / 231015.0 5.4 2.028.025.028.0
2015-Aug-25 23:00N 24°36' W 076°00'118 6.9 080 / 91016.010.8 28.025.031.4
2015-Aug-25 06:00N 23°12' W 074°30'16320.4 120 / 121015.0 5.4 1.528.025.027.0
2015-Aug-24 22:00N 22°06' W 071°48'320 8.9 100 / 141016.010.8 0.528.025.030.3
2015-Aug-23 10:00N 25°30' W 076°18'15618.2 330 / 31016.010.8 28.025.030.5
2015-Aug-23 01:23N 26°16' W 079°04'1416.7
2015-Aug-23 00:33N 26°11' W 079°18'1817.5
2015-Aug-22 23:33N 26°02' W 079°35'1818.2
2015-Aug-22 22:33N 25°53' W 079°52'1615.6
2015-Aug-22 21:33N 25°46' W 080°08'2 2.3
2015-Aug-22 20:32N 25°47' W 080°10'0 0.0
2015-Aug-22 19:29N 25°47' W 080°10'0 0.0
2015-Aug-22 18:32N 25°47' W 080°10'0 0.0
2015-Aug-22 17:32N 25°47' W 080°10'0 0.0
2015-Aug-22 16:32N 25°47' W 080°10'0 0.0
2015-Aug-22 15:32N 25°47' W 080°10'0 0.0
2015-Aug-22 14:32N 25°47' W 080°10'0 0.0
2015-Aug-22 13:32N 25°47' W 080°10'0 0.0
2015-Aug-22 12:32N 25°47' W 080°10'0 0.0
2015-Aug-22 11:32N 25°47' W 080°10'1 1.5
2015-Aug-22 10:34N 25°46' W 080°09'10 9.6
2015-Aug-22 09:33N 25°43' W 079°59'1414.1
2015-Aug-22 08:34N 25°29' W 079°54'  
2015-Aug-19 06:00N 20°00' W 082°36'18915.7 120 / 81013.010.8 1.029.026.029.0
2015-Aug-18 18:00N 22°36' W 084°30'13817.2 040 / 41016.010.8 2.030.027.030.0
2015-Aug-18 10:00N 23°30' W 082°12'7218.1 080 / 91016.010.8 0.527.024.031.3
2015-Aug-18 06:00N 24°00' W 081°00'9215.7 090 / 191015.0 1.528.025.029.0
2015-Aug-18 00:08N 25°13' W 079°58'916.2
2015-Aug-17 23:33N 25°22' W 079°57'  

Dump ship's entire track history